Terminal Aerodrome Forecast
Issued by NWS Austin/San Antonio, TX

Current Version | Previous Version | Text Only | Print | Product List | Glossary On
Versions: 1 2 3 4 5 6 7 8 9 10 11 12
000
FTUS44 KEWX 190534
TAFSAT
TAF
KSAT 190534Z 1906/2012 VRB04KT P6SM BKN250
     FM191200 VRB03KT P6SM SCT015 BKN025
     FM191700 15007KT P6SM BKN040
     FM200500 12007KT P6SM BKN015=

USA.gov is the U.S. government's official web portal to all federal, state and local government web resources and services.